sensor_id;sensor_type;location;lat;lon;timestamp;pressure;altitude;pressure_sealevel;temperature;humidity
36062;BME280;22123;52.412;20.970;2023-01-30T00:01:52;100178.44;;;-1.82;100.00
36062;BME280;22123;52.412;20.970;2023-01-30T00:04:17;100203.59;;;-1.64;100.00
36062;BME280;22123;52.412;20.970;2023-01-30T00:06:43;100353.59;;;-0.74;100.00
36062;BME280;22123;52.412;20.970;2023-01-30T00:09:14;99973.00;;;-2.96;100.00
36062;BME280;22123;52.412;20.970;2023-01-30T00:11:40;100309.72;;;-0.90;100.00
36062;BME280;22123;52.412;20.970;2023-01-30T00:14:06;100121.94;;;-1.93;100.00
36062;BME280;22123;52.412;20.970;2023-01-30T00:16:32;100104.19;;;-2.18;100.00
36062;BME280;22123;52.412;20.970;2023-01-30T00:18:57;100175.53;;;-1.65;100.00
36062;BME280;22123;52.412;20.970;2023-01-30T00:21:23;100093.16;;;-2.10;100.00
36062;BME280;22123;52.412;20.970;2023-01-30T00:23:49;100144.19;;;-1.69;100.00
36062;BME280;22123;52.412;20.970;2023-01-30T00:26:15;100329.44;;;-0.68;100.00
36062;BME280;22123;52.412;20.970;2023-01-30T00:28:41;100244.56;;;-1.03;100.00
36062;BME280;22123;52.412;20.970;2023-01-30T00:31:07;100095.72;;;-1.96;100.00
36062;BME280;22123;52.412;20.970;2023-01-30T00:33:35;100218.09;;;-1.29;100.00
36062;BME280;22123;52.412;20.970;2023-01-30T00:36:01;100184.06;;;-1.34;100.00
36062;BME280;22123;52.412;20.970;2023-01-30T00:38:27;100178.16;;;-1.37;100.00
36062;BME280;22123;52.412;20.970;2023-01-30T00:40:53;100176.25;;;-1.35;100.00
36062;BME280;22123;52.412;20.970;2023-01-30T00:43:19;100285.44;;;-0.56;100.00
36062;BME280;22123;52.412;20.970;2023-01-30T00:45:48;100204.91;;;-1.16;100.00
36062;BME280;22123;52.412;20.970;2023-01-30T00:48:15;100155.13;;;-1.35;100.00
36062;BME280;22123;52.412;20.970;2023-01-30T00:50:41;99937.47;;;-2.76;100.00
36062;BME280;22123;52.412;20.970;2023-01-30T00:53:13;100157.03;;;-1.37;100.00
36062;BME280;22123;52.412;20.970;2023-01-30T00:55:43;100092.53;;;-1.73;100.00
36062;BME280;22123;52.412;20.970;2023-01-30T00:58:09;100135.34;;;-1.43;100.00
36062;BME280;22123;52.412;20.970;2023-01-30T01:00:35;99999.13;;;-2.24;100.00
36062;BME280;22123;52.412;20.970;2023-01-30T01:03:02;100246.28;;;-0.64;100.00
36062;BME280;22123;52.412;20.970;2023-01-30T01:05:28;99751.97;;;-3.67;100.00
36062;BME280;22123;52.412;20.970;2023-01-30T01:07:54;100150.38;;;-1.17;100.00
36062;BME280;22123;52.412;20.970;2023-01-30T01:10:21;100217.31;;;-0.65;100.00
36062;BME280;22123;52.412;20.970;2023-01-30T01:12:48;100203.13;;;-0.64;100.00
36062;BME280;22123;52.412;20.970;2023-01-30T01:15:14;100074.63;;;-1.43;100.00
36062;BME280;22123;52.412;20.970;2023-01-30T01:17:41;100148.91;;;-0.96;100.00
36062;BME280;22123;52.412;20.970;2023-01-30T01:20:08;100123.44;;;-1.10;100.00
36062;BME280;22123;52.412;20.970;2023-01-30T01:22:34;100078.09;;;-1.29;100.00
36062;BME280;22123;52.412;20.970;2023-01-30T01:25:00;99958.97;;;-1.89;100.00
36062;BME280;22123;52.412;20.970;2023-01-30T01:27:27;100016.00;;;-1.61;100.00
36062;BME280;22123;52.412;20.970;2023-01-30T01:29:53;100032.47;;;-1.44;100.00
36062;BME280;22123;52.412;20.970;2023-01-30T01:32:20;100163.16;;;-0.60;100.00
36062;BME280;22123;52.412;20.970;2023-01-30T01:34:46;99977.88;;;-1.69;100.00
36062;BME280;22123;52.412;20.970;2023-01-30T01:37:12;100101.53;;;-0.99;100.00
36062;BME280;22123;52.412;20.970;2023-01-30T01:39:38;100103.13;;;-0.83;100.00
36062;BME280;22123;52.412;20.970;2023-01-30T01:42:04;99928.91;;;-1.86;100.00
36062;BME280;22123;52.412;20.970;2023-01-30T01:45:23;100049.66;;;-1.00;100.00
36062;BME280;22123;52.412;20.970;2023-01-30T01:50:37;100106.00;;;-0.49;100.00
36062;BME280;22123;52.412;20.970;2023-01-30T01:53:05;99952.72;;;-1.49;100.00
36062;BME280;22123;52.412;20.970;2023-01-30T01:55:32;99879.72;;;-2.00;100.00
36062;BME280;22123;52.412;20.970;2023-01-30T01:58:04;99895.00;;;-1.80;100.00
36062;BME280;22123;52.412;20.970;2023-01-30T02:00:32;99970.03;;;-1.32;100.00
36062;BME280;22123;52.412;20.970;2023-01-30T02:03:02;99941.75;;;-1.43;100.00
36062;BME280;22123;52.412;20.970;2023-01-30T02:05:34;99988.06;;;-1.26;100.00
36062;BME280;22123;52.412;20.970;2023-01-30T02:08:09;100025.78;;;-0.98;100.00
36062;BME280;22123;52.412;20.970;2023-01-30T02:10:57;100094.25;;;-0.45;100.00
36062;BME280;22123;52.412;20.970;2023-01-30T02:13:25;99955.88;;;-1.31;100.00
36062;BME280;22123;52.412;20.970;2023-01-30T02:15:51;99958.06;;;-1.25;100.00
36062;BME280;22123;52.412;20.970;2023-01-30T02:18:18;99921.78;;;-1.47;100.00
36062;BME280;22123;52.412;20.970;2023-01-30T02:21:05;100087.84;;;-0.54;100.00
36062;BME280;22123;52.412;20.970;2023-01-30T02:32:13;100060.19;;;-0.37;100.00
36062;BME280;22123;52.412;20.970;2023-01-30T02:34:54;100058.47;;;-0.38;100.00
36062;BME280;22123;52.412;20.970;2023-01-30T02:37:46;100043.47;;;-0.38;100.00
36062;BME280;22123;52.412;20.970;2023-01-30T02:43:12;99881.00;;;-1.30;100.00
36062;BME280;22123;52.412;20.970;2023-01-30T02:48:22;99930.53;;;-0.97;100.00
36062;BME280;22123;52.412;20.970;2023-01-30T02:50:58;99808.63;;;-1.65;100.00
36062;BME280;22123;52.412;20.970;2023-01-30T02:53:29;99844.53;;;-1.38;100.00
36062;BME280;22123;52.412;20.970;2023-01-30T02:55:56;100013.28;;;-0.35;100.00
36062;BME280;22123;52.412;20.970;2023-01-30T02:58:22;99999.44;;;-0.39;100.00
36062;BME280;22123;52.412;20.970;2023-01-30T03:09:15;99907.31;;;-0.80;100.00
36062;BME280;22123;52.412;20.970;2023-01-30T03:11:52;99839.84;;;-1.21;100.00
36062;BME280;22123;52.412;20.970;2023-01-30T03:14:25;99766.75;;;-1.69;100.00
36062;BME280;22123;52.412;20.970;2023-01-30T03:16:54;99931.09;;;-0.56;100.00
36062;BME280;22123;52.412;20.970;2023-01-30T03:19:22;99950.03;;;-0.38;100.00
36062;BME280;22123;52.412;20.970;2023-01-30T03:21:47;99834.78;;;-1.00;100.00
36062;BME280;22123;52.412;20.970;2023-01-30T03:24:14;99929.81;;;-0.39;100.00
36062;BME280;22123;52.412;20.970;2023-01-30T03:26:47;99865.47;;;-0.86;100.00
36062;BME280;22123;52.412;20.970;2023-01-30T03:29:13;99912.28;;;-0.40;100.00
36062;BME280;22123;52.412;20.970;2023-01-30T03:31:39;99651.25;;;-2.03;100.00
36062;BME280;22123;52.412;20.970;2023-01-30T03:34:05;99749.88;;;-1.55;100.00
36062;BME280;22123;52.412;20.970;2023-01-30T03:36:31;99633.38;;;-2.11;100.00
36062;BME280;22123;52.412;20.970;2023-01-30T03:38:57;99721.78;;;-1.57;100.00
36062;BME280;22123;52.412;20.970;2023-01-30T03:41:23;99714.28;;;-1.50;100.00
36062;BME280;22123;52.412;20.970;2023-01-30T03:43:49;99844.03;;;-0.71;100.00
36062;BME280;22123;52.412;20.970;2023-01-30T03:46:15;99620.19;;;-2.11;100.00
36062;BME280;22123;52.412;20.970;2023-01-30T03:48:41;99710.47;;;-1.46;100.00
36062;BME280;22123;52.412;20.970;2023-01-30T03:51:09;99760.38;;;-1.43;100.00
36062;BME280;22123;52.412;20.970;2023-01-30T03:53:34;99595.03;;;-2.28;100.00
36062;BME280;22123;52.412;20.970;2023-01-30T03:56:00;99604.47;;;-2.12;100.00
36062;BME280;22123;52.412;20.970;2023-01-30T03:58:26;99790.72;;;-1.00;100.00
36062;BME280;22123;52.412;20.970;2023-01-30T04:00:55;99829.31;;;-0.86;100.00
36062;BME280;22123;52.412;20.970;2023-01-30T04:03:21;99708.88;;;-1.48;100.00
36062;BME280;22123;52.412;20.970;2023-01-30T04:05:46;99647.91;;;-1.81;100.00
36062;BME280;22123;52.412;20.970;2023-01-30T04:08:12;99647.06;;;-1.81;100.00
36062;BME280;22123;52.412;20.970;2023-01-30T04:10:38;99835.91;;;-0.56;100.00
36062;BME280;22123;52.412;20.970;2023-01-30T04:13:04;99737.44;;;-1.18;100.00
36062;BME280;22123;52.412;20.970;2023-01-30T04:15:30;99375.00;;;-3.43;100.00
36062;BME280;22123;52.412;20.970;2023-01-30T04:17:56;99751.19;;;-1.01;100.00
36062;BME280;22123;52.412;20.970;2023-01-30T04:20:22;99511.06;;;-2.45;100.00
36062;BME280;22123;52.412;20.970;2023-01-30T04:22:48;99458.34;;;-2.93;100.00
36062;BME280;22123;52.412;20.970;2023-01-30T04:25:16;99451.06;;;-2.90;100.00
36062;BME280;22123;52.412;20.970;2023-01-30T04:27:42;99529.16;;;-2.40;100.00
36062;BME280;22123;52.412;20.970;2023-01-30T04:30:08;99497.63;;;-2.53;100.00
36062;BME280;22123;52.412;20.970;2023-01-30T04:32:35;99709.09;;;-1.27;100.00
36062;BME280;22123;52.412;20.970;2023-01-30T04:35:01;99605.31;;;-1.87;100.00
36062;BME280;22123;52.412;20.970;2023-01-30T04:37:26;99730.16;;;-1.03;100.00
36062;BME280;22123;52.412;20.970;2023-01-30T04:39:52;99670.03;;;-1.35;100.00
36062;BME280;22123;52.412;20.970;2023-01-30T04:42:18;99697.34;;;-1.23;100.00
36062;BME280;22123;52.412;20.970;2023-01-30T04:44:44;99511.41;;;-2.25;100.00
36062;BME280;22123;52.412;20.970;2023-01-30T04:47:10;99591.09;;;-1.73;100.00
36062;BME280;22123;52.412;20.970;2023-01-30T04:49:36;99659.94;;;-1.41;100.00
36062;BME280;22123;52.412;20.970;2023-01-30T04:52:02;99541.53;;;-2.17;100.00
36062;BME280;22123;52.412;20.970;2023-01-30T04:54:28;99710.56;;;-1.23;100.00
36062;BME280;22123;52.412;20.970;2023-01-30T04:56:53;99594.09;;;-1.78;100.00
36062;BME280;22123;52.412;20.970;2023-01-30T04:59:19;99667.88;;;-1.41;100.00
36062;BME280;22123;52.412;20.970;2023-01-30T05:01:48;99752.31;;;-0.81;100.00
36062;BME280;22123;52.412;20.970;2023-01-30T05:04:14;99447.59;;;-2.66;100.00
36062;BME280;22123;52.412;20.970;2023-01-30T05:06:43;99392.16;;;-2.89;100.00
36062;BME280;22123;52.412;20.970;2023-01-30T05:09:09;99614.06;;;-1.51;100.00
36062;BME280;22123;52.412;20.970;2023-01-30T05:11:35;99519.50;;;-2.04;100.00
36062;BME280;22123;52.412;20.970;2023-01-30T05:14:00;99486.56;;;-2.34;100.00
36062;BME280;22123;52.412;20.970;2023-01-30T05:16:44;99595.78;;;-1.66;100.00
36062;BME280;22123;52.412;20.970;2023-01-30T05:19:12;99654.72;;;-1.18;100.00
36062;BME280;22123;52.412;20.970;2023-01-30T05:21:38;99560.13;;;-1.71;100.00
36062;BME280;22123;52.412;20.970;2023-01-30T05:24:04;99472.31;;;-2.32;100.00
36062;BME280;22123;52.412;20.970;2023-01-30T05:26:30;99472.41;;;-2.33;100.00
36062;BME280;22123;52.412;20.970;2023-01-30T05:28:56;99667.38;;;-0.99;100.00
36062;BME280;22123;52.412;20.970;2023-01-30T05:31:22;99645.22;;;-1.21;100.00
36062;BME280;22123;52.412;20.970;2023-01-30T05:33:49;99420.84;;;-2.49;100.00
36062;BME280;22123;52.412;20.970;2023-01-30T05:36:17;99646.44;;;-1.14;100.00
36062;BME280;22123;52.412;20.970;2023-01-30T05:38:46;99569.03;;;-1.61;100.00
36062;BME280;22123;52.412;20.970;2023-01-30T05:41:14;99559.66;;;-1.65;100.00
36062;BME280;22123;52.412;20.970;2023-01-30T05:43:40;99656.69;;;-0.98;100.00
36062;BME280;22123;52.412;20.970;2023-01-30T05:46:08;99649.00;;;-1.01;100.00
36062;BME280;22123;52.412;20.970;2023-01-30T05:48:34;99307.84;;;-3.00;100.00
36062;BME280;22123;52.412;20.970;2023-01-30T05:51:00;99515.75;;;-1.78;100.00
36062;BME280;22123;52.412;20.970;2023-01-30T05:53:28;99372.19;;;-2.56;100.00
36062;BME280;22123;52.412;20.970;2023-01-30T05:55:59;99511.31;;;-1.77;100.00
36062;BME280;22123;52.412;20.970;2023-01-30T05:58:26;99404.56;;;-2.42;100.00
36062;BME280;22123;52.412;20.970;2023-01-30T06:00:53;99541.00;;;-1.40;100.00
36062;BME280;22123;52.412;20.970;2023-01-30T06:03:19;99519.84;;;-1.51;100.00
36062;BME280;22123;52.412;20.970;2023-01-30T06:05:45;99366.19;;;-2.47;100.00
36062;BME280;22123;52.412;20.970;2023-01-30T06:08:11;99226.34;;;-3.26;100.00
36062;BME280;22123;52.412;20.970;2023-01-30T06:10:37;99223.31;;;-3.44;100.00
36062;BME280;22123;52.412;20.970;2023-01-30T06:13:03;99386.63;;;-2.37;100.00
36062;BME280;22123;52.412;20.970;2023-01-30T06:15:29;99440.88;;;-1.99;100.00
36062;BME280;22123;52.412;20.970;2023-01-30T06:17:55;99536.66;;;-1.41;100.00
36062;BME280;22123;52.412;20.970;2023-01-30T06:20:21;99520.75;;;-1.39;100.00
36062;BME280;22123;52.412;20.970;2023-01-30T06:22:47;99422.66;;;-2.02;100.00
36062;BME280;22123;52.412;20.970;2023-01-30T06:25:13;99350.75;;;-2.51;100.00
36062;BME280;22123;52.412;20.970;2023-01-30T06:27:39;99408.59;;;-2.03;100.00
36062;BME280;22123;52.412;20.970;2023-01-30T06:30:06;99443.75;;;-1.80;100.00
36062;BME280;22123;52.412;20.970;2023-01-30T06:32:32;99405.88;;;-2.01;100.00
36062;BME280;22123;52.412;20.970;2023-01-30T06:34:58;99596.75;;;-0.86;100.00
36062;BME280;22123;52.412;20.970;2023-01-30T06:37:23;99508.84;;;-1.45;100.00
36062;BME280;22123;52.412;20.970;2023-01-30T06:39:50;99590.63;;;-0.86;100.00
36062;BME280;22123;52.412;20.970;2023-01-30T06:42:16;99513.28;;;-1.34;100.00
36062;BME280;22123;52.412;20.970;2023-01-30T06:44:42;99391.34;;;-1.96;100.00
36062;BME280;22123;52.412;20.970;2023-01-30T06:47:08;99392.53;;;-2.11;100.00
36062;BME280;22123;52.412;20.970;2023-01-30T06:49:34;99412.47;;;-1.73;100.00
36062;BME280;22123;52.412;20.970;2023-01-30T06:52:00;99491.34;;;-1.34;100.00
36062;BME280;22123;52.412;20.970;2023-01-30T06:54:25;99400.94;;;-1.95;100.00
36062;BME280;22123;52.412;20.970;2023-01-30T06:56:52;99569.25;;;-0.83;100.00
36062;BME280;22123;52.412;20.970;2023-01-30T06:59:18;99451.00;;;-1.59;100.00
36062;BME280;22123;52.412;20.970;2023-01-30T07:01:44;99402.78;;;-1.84;100.00
36062;BME280;22123;52.412;20.970;2023-01-30T07:04:10;99280.56;;;-2.41;100.00
36062;BME280;22123;52.412;20.970;2023-01-30T07:06:36;99429.66;;;-1.45;100.00
36062;BME280;22123;52.412;20.970;2023-01-30T07:09:02;99510.16;;;-0.82;100.00
36062;BME280;22123;52.412;20.970;2023-01-30T07:11:28;99386.44;;;-1.78;100.00
36062;BME280;22123;52.412;20.970;2023-01-30T07:13:54;99262.31;;;-2.67;100.00
36062;BME280;22123;52.412;20.970;2023-01-30T07:16:20;99447.63;;;-1.38;100.00
36062;BME280;22123;52.412;20.970;2023-01-30T07:18:46;99176.91;;;-2.98;100.00
36062;BME280;22123;52.412;20.970;2023-01-30T07:21:12;99344.84;;;-1.97;100.00
36062;BME280;22123;52.412;20.970;2023-01-30T07:23:38;99425.81;;;-1.52;100.00
36062;BME280;22123;52.412;20.970;2023-01-30T07:26:04;99433.00;;;-1.43;100.00
36062;BME280;22123;52.412;20.970;2023-01-30T07:28:30;99286.44;;;-2.26;100.00
36062;BME280;22123;52.412;20.970;2023-01-30T07:31:00;99493.56;;;-0.96;100.00
36062;BME280;22123;52.412;20.970;2023-01-30T07:33:26;99437.44;;;-1.43;100.00
36062;BME280;22123;52.412;20.970;2023-01-30T07:35:52;99400.47;;;-1.66;100.00
36062;BME280;22123;52.412;20.970;2023-01-30T07:38:18;99437.66;;;-1.35;100.00
36062;BME280;22123;52.412;20.970;2023-01-30T07:40:43;99220.38;;;-2.81;100.00
36062;BME280;22123;52.412;20.970;2023-01-30T07:43:11;99433.00;;;-1.43;100.00
36062;BME280;22123;52.412;20.970;2023-01-30T07:45:43;99372.53;;;-1.80;100.00
36062;BME280;22123;52.412;20.970;2023-01-30T07:48:11;99335.84;;;-2.17;100.00
36062;BME280;22123;52.412;20.970;2023-01-30T07:50:37;99466.13;;;-1.27;100.00
36062;BME280;22123;52.412;20.970;2023-01-30T07:53:09;99461.09;;;-1.30;100.00
36062;BME280;22123;52.412;20.970;2023-01-30T07:55:35;99400.97;;;-1.72;100.00
36062;BME280;22123;52.412;20.970;2023-01-30T07:58:01;99386.94;;;-1.84;100.00
36062;BME280;22123;52.412;20.970;2023-01-30T08:00:27;99319.50;;;-2.22;100.00
36062;BME280;22123;52.412;20.970;2023-01-30T08:02:53;99388.84;;;-1.86;100.00
36062;BME280;22123;52.412;20.970;2023-01-30T08:05:19;99256.59;;;-2.60;100.00
36062;BME280;22123;52.412;20.970;2023-01-30T08:07:45;99452.19;;;-1.41;100.00
36062;BME280;22123;52.412;20.970;2023-01-30T08:10:11;99231.13;;;-2.84;100.00
36062;BME280;22123;52.412;20.970;2023-01-30T08:12:38;99341.09;;;-2.17;100.00
36062;BME280;22123;52.412;20.970;2023-01-30T08:15:05;99338.81;;;-2.10;100.00
36062;BME280;22123;52.412;20.970;2023-01-30T08:17:31;99302.59;;;-2.31;100.00
36062;BME280;22123;52.412;20.970;2023-01-30T08:19:57;99261.84;;;-2.72;100.00
36062;BME280;22123;52.412;20.970;2023-01-30T08:22:23;99236.56;;;-2.74;100.00
36062;BME280;22123;52.412;20.970;2023-01-30T08:24:49;99164.81;;;-3.01;100.00
36062;BME280;22123;52.412;20.970;2023-01-30T08:27:15;99080.94;;;-3.63;100.00
36062;BME280;22123;52.412;20.970;2023-01-30T08:29:41;99436.13;;;-1.37;100.00
36062;BME280;22123;52.412;20.970;2023-01-30T08:32:06;99289.44;;;-2.08;100.00
36062;BME280;22123;52.412;20.970;2023-01-30T08:34:32;99326.72;;;-2.13;100.00
36062;BME280;22123;52.412;20.970;2023-01-30T08:36:58;99126.22;;;-3.13;100.00
36062;BME280;22123;52.412;20.970;2023-01-30T08:39:24;98998.13;;;-3.93;100.00
36062;BME280;22123;52.412;20.970;2023-01-30T08:41:50;99225.41;;;-2.67;100.00
36062;BME280;22123;52.412;20.970;2023-01-30T08:44:16;99340.63;;;-1.99;100.00
36062;BME280;22123;52.412;20.970;2023-01-30T08:46:42;99274.22;;;-2.38;100.00
36062;BME280;22123;52.412;20.970;2023-01-30T08:49:09;99357.66;;;-1.81;100.00
36062;BME280;22123;52.412;20.970;2023-01-30T08:51:35;99329.97;;;-1.98;100.00
36062;BME280;22123;52.412;20.970;2023-01-30T08:54:01;99272.91;;;-2.33;100.00
36062;BME280;22123;52.412;20.970;2023-01-30T08:56:26;99369.19;;;-1.59;100.00
36062;BME280;22123;52.412;20.970;2023-01-30T08:58:52;99332.72;;;-1.77;100.00
36062;BME280;22123;52.412;20.970;2023-01-30T09:01:18;99216.22;;;-2.38;100.00
36062;BME280;22123;52.412;20.970;2023-01-30T09:03:44;99276.13;;;-2.06;100.00
36062;BME280;22123;52.412;20.970;2023-01-30T09:06:10;99286.94;;;-1.98;100.00
36062;BME280;22123;52.412;20.970;2023-01-30T09:08:36;99190.81;;;-2.51;100.00
36062;BME280;22123;52.412;20.970;2023-01-30T09:11:04;99370.69;;;-1.34;100.00
36062;BME280;22123;52.412;20.970;2023-01-30T09:13:31;99227.47;;;-2.14;100.00
36062;BME280;22123;52.412;20.970;2023-01-30T09:15:57;99213.91;;;-2.20;100.00
36062;BME280;22123;52.412;20.970;2023-01-30T09:18:23;99144.09;;;-2.60;100.00
36062;BME280;22123;52.412;20.970;2023-01-30T09:20:49;99256.81;;;-1.96;100.00
36062;BME280;22123;52.412;20.970;2023-01-30T09:23:15;99247.00;;;-1.94;100.00
36062;BME280;22123;52.412;20.970;2023-01-30T09:25:44;99222.19;;;-2.02;100.00
36062;BME280;22123;52.412;20.970;2023-01-30T09:28:16;99247.50;;;-2.00;100.00
36062;BME280;22123;52.412;20.970;2023-01-30T09:30:41;99152.72;;;-2.58;100.00
36062;BME280;22123;52.412;20.970;2023-01-30T09:33:07;99339.84;;;-1.33;100.00
36062;BME280;22123;52.412;20.970;2023-01-30T09:35:33;99187.47;;;-2.30;100.00
36062;BME280;22123;52.412;20.970;2023-01-30T09:37:59;99109.03;;;-2.72;100.00
36062;BME280;22123;52.412;20.970;2023-01-30T09:40:27;99313.22;;;-1.30;100.00
36062;BME280;22123;52.412;20.970;2023-01-30T09:45:32;99300.72;;;-1.28;100.00
36062;BME280;22123;52.412;20.970;2023-01-30T09:48:18;99095.34;;;-2.54;100.00
36062;BME280;22123;52.412;20.970;2023-01-30T09:51:01;99304.06;;;-1.26;100.00
36062;BME280;22123;52.412;20.970;2023-01-30T09:56:14;99307.88;;;-1.19;100.00
36062;BME280;22123;52.412;20.970;2023-01-30T09:58:51;99288.56;;;-1.19;100.00
36062;BME280;22123;52.412;20.970;2023-01-30T10:04:36;99174.88;;;-1.83;100.00
36062;BME280;22123;52.412;20.970;2023-01-30T10:09:50;99272.00;;;-1.21;100.00
36062;BME280;22123;52.412;20.970;2023-01-30T10:17:45;99261.66;;;-1.25;100.00
36062;BME280;22123;52.412;20.970;2023-01-30T10:20:28;99215.97;;;-1.58;100.00
36062;BME280;22123;52.412;20.970;2023-01-30T10:25:49;99125.81;;;-2.06;100.00
36062;BME280;22123;52.412;20.970;2023-01-30T10:30:48;99078.75;;;-2.22;100.00
36062;BME280;22123;52.412;20.970;2023-01-30T10:36:20;99206.84;;;-1.32;100.00
36062;BME280;22123;52.412;20.970;2023-01-30T10:38:51;99031.97;;;-2.41;100.00
36062;BME280;22123;52.412;20.970;2023-01-30T10:41:23;99063.63;;;-2.20;100.00
36062;BME280;22123;52.412;20.970;2023-01-30T10:44:21;99036.19;;;-2.50;100.00
36062;BME280;22123;52.412;20.970;2023-01-30T10:49:38;98962.44;;;-2.73;100.00
36062;BME280;22123;52.412;20.970;2023-01-30T10:57:50;99221.88;;;-1.12;100.00
36062;BME280;22123;52.412;20.970;2023-01-30T11:00:30;99163.91;;;-1.34;100.00
36062;BME280;22123;52.412;20.970;2023-01-30T11:06:12;99118.75;;;-1.52;100.00
36062;BME280;22123;52.412;20.970;2023-01-30T11:08:39;99099.56;;;-1.54;100.00
36062;BME280;22123;52.412;20.970;2023-01-30T11:11:31;99114.63;;;-1.45;100.00
36062;BME280;22123;52.412;20.970;2023-01-30T11:14:06;99014.44;;;-2.10;100.00
36062;BME280;22123;52.412;20.970;2023-01-30T11:16:43;99175.44;;;-0.93;100.00
36062;BME280;22123;52.412;20.970;2023-01-30T11:19:11;99040.94;;;-1.79;100.00
36062;BME280;22123;52.412;20.970;2023-01-30T11:21:38;99046.28;;;-1.69;100.00
36062;BME280;22123;52.412;20.970;2023-01-30T11:24:13;99058.91;;;-1.52;100.00
36062;BME280;22123;52.412;20.970;2023-01-30T11:26:39;99082.19;;;-1.36;100.00
36062;BME280;22123;52.412;20.970;2023-01-30T11:29:14;99150.16;;;-0.86;100.00
36062;BME280;22123;52.412;20.970;2023-01-30T11:31:40;98865.88;;;-2.63;100.00
36062;BME280;22123;52.412;20.970;2023-01-30T11:34:18;98719.16;;;-3.46;100.00
36062;BME280;22123;52.412;20.970;2023-01-30T11:36:44;99084.75;;;-1.25;100.00
36062;BME280;22123;52.412;20.970;2023-01-30T11:41:55;98879.84;;;-2.51;100.00
36062;BME280;22123;52.412;20.970;2023-01-30T11:44:28;99092.03;;;-1.17;100.00
36062;BME280;22123;52.412;20.970;2023-01-30T11:46:59;98707.28;;;-3.62;100.00
36062;BME280;22123;52.412;20.970;2023-01-30T11:49:34;98869.06;;;-2.48;100.00
36062;BME280;22123;52.412;20.970;2023-01-30T11:52:00;99043.69;;;-1.38;100.00
36062;BME280;22123;52.412;20.970;2023-01-30T11:54:33;99141.88;;;-0.72;100.00
36062;BME280;22123;52.412;20.970;2023-01-30T11:57:03;98979.47;;;-1.70;100.00
36062;BME280;22123;52.412;20.970;2023-01-30T11:59:35;98978.09;;;-1.64;100.00
36062;BME280;22123;52.412;20.970;2023-01-30T12:02:25;99122.00;;;-0.66;100.00
36062;BME280;22123;52.412;20.970;2023-01-30T12:05:05;99121.19;;;-0.66;100.00
36062;BME280;22123;52.412;20.970;2023-01-30T12:07:33;98960.44;;;-1.64;100.00
36062;BME280;22123;52.412;20.970;2023-01-30T12:10:00;99049.22;;;-1.11;100.00
36062;BME280;22123;52.412;20.970;2023-01-30T12:12:29;99073.25;;;-0.93;100.00
36062;BME280;22123;52.412;20.970;2023-01-30T12:20:52;99107.44;;;-0.60;100.00
36062;BME280;22123;52.412;20.970;2023-01-30T12:23:30;98950.63;;;-1.62;100.00
36062;BME280;22123;52.412;20.970;2023-01-30T12:26:35;99117.72;;;-0.57;100.00
36062;BME280;22123;52.412;20.970;2023-01-30T12:29:22;99106.06;;;-0.55;100.00
36062;BME280;22123;52.412;20.970;2023-01-30T12:32:07;99061.03;;;-0.84;100.00
36062;BME280;22123;52.412;20.970;2023-01-30T12:34:36;99049.28;;;-1.01;100.00
36062;BME280;22123;52.412;20.970;2023-01-30T12:37:35;99063.13;;;-0.78;100.00
36062;BME280;22123;52.412;20.970;2023-01-30T12:43:21;98917.22;;;-1.72;100.00
36062;BME280;22123;52.412;20.970;2023-01-30T12:59:38;99091.47;;;-0.49;100.00
36062;BME280;22123;52.412;20.970;2023-01-30T13:10:32;99039.13;;;-0.65;100.00
36062;BME280;22123;52.412;20.970;2023-01-30T13:16:06;99083.84;;;-0.32;100.00
36062;BME280;22123;52.412;20.970;2023-01-30T13:18:45;98986.88;;;-0.92;100.00
36062;BME280;22123;52.412;20.970;2023-01-30T13:21:18;99001.91;;;-0.83;100.00
36062;BME280;22123;52.412;20.970;2023-01-30T13:26:33;98939.91;;;-1.29;100.00
36062;BME280;22123;52.412;20.970;2023-01-30T13:29:05;99012.06;;;-0.78;100.00
36062;BME280;22123;52.412;20.970;2023-01-30T13:31:38;98862.13;;;-1.66;100.00
36062;BME280;22123;52.412;20.970;2023-01-30T13:34:18;98824.81;;;-1.92;100.00
36062;BME280;22123;52.412;20.970;2023-01-30T13:36:53;99065.03;;;-0.39;100.00
36062;BME280;22123;52.412;20.970;2023-01-30T13:39:46;98905.16;;;-1.34;100.00
36062;BME280;22123;52.412;20.970;2023-01-30T13:45:17;98944.25;;;-1.18;100.00
36062;BME280;22123;52.412;20.970;2023-01-30T13:56:07;99082.19;;;-0.24;100.00
36062;BME280;22123;52.412;20.970;2023-01-30T14:01:04;98983.38;;;-1.02;100.00
36062;BME280;22123;52.412;20.970;2023-01-30T14:03:31;98943.00;;;-1.24;100.00
36062;BME280;22123;52.412;20.970;2023-01-30T14:06:05;98871.72;;;-1.65;100.00
36062;BME280;22123;52.412;20.970;2023-01-30T14:17:05;99086.22;;;-0.20;100.00
36062;BME280;22123;52.412;20.970;2023-01-30T14:22:25;99104.63;;;-0.18;100.00
36062;BME280;22123;52.412;20.970;2023-01-30T14:30:47;99112.28;;;-0.15;100.00
36062;BME280;22123;52.412;20.970;2023-01-30T14:38:36;98973.09;;;-0.96;100.00
36062;BME280;22123;52.412;20.970;2023-01-30T14:46:38;98851.59;;;-1.56;100.00
36062;BME280;22123;52.412;20.970;2023-01-30T14:49:22;98988.28;;;-0.78;100.00
36062;BME280;22123;52.412;20.970;2023-01-30T14:51:49;98793.56;;;-1.97;100.00
36062;BME280;22123;52.412;20.970;2023-01-30T14:54:22;98689.34;;;-2.63;100.00
36062;BME280;22123;52.412;20.970;2023-01-30T15:05:05;99123.59;;;0.07;100.00
36062;BME280;22123;52.412;20.970;2023-01-30T15:13:31;99099.75;;;0.07;100.00
36062;BME280;22123;52.412;20.970;2023-01-30T15:24:29;99112.03;;;0.08;100.00
36062;BME280;22123;52.412;20.970;2023-01-30T15:27:30;99116.34;;;0.09;100.00
36062;BME280;22123;52.412;20.970;2023-01-30T15:35:39;98918.00;;;-1.20;100.00
36062;BME280;22123;52.412;20.970;2023-01-30T15:38:22;99035.84;;;-0.38;100.00
36062;BME280;22123;52.412;20.970;2023-01-30T15:40:48;98895.72;;;-1.27;100.00